Terminal Aerodrome Forecast
Issued by NWS

Home | Current Version | Previous Version | Text Only | Print | Product List | Glossary On
Versions: 1 2 3 4 5 6 7 8 9 10 11 12 13 14 15 16 17 18
000
FTUS41 KBTV 301844 AAB
TAFMPV
TAF AMD
KMPV 301844Z 3019/3118 31010G20KT 2SM -SN BR OVC020
      TEMPO 3019/3023 3/4SM -SN BR BKN009
     FM310000 32012G18KT 6SM -SN BR OVC022
     FM310600 32010G20KT P6SM OVC030
     FM311500 34010KT P6SM SCT030=

USA.gov is the U.S. government's official web portal to all federal, state and local government web resources and services.